createdAt,value
2022-09-25T00:01:16.289Z,69.16
2022-09-25T00:03:44.121Z,72.14
2022-09-25T00:06:23.334Z,73.27
2022-09-25T00:08:51.337Z,74.49
2022-09-25T00:11:26.309Z,75.24
2022-09-25T00:13:55.467Z,72.29
2022-09-25T00:16:26.246Z,72.43
2022-09-25T00:19:12.592Z,69.68
2022-09-25T00:21:40.286Z,71.21
2022-09-25T00:24:09.821Z,74.07
2022-09-25T00:26:39.915Z,74.57
2022-09-25T00:29:09.033Z,74.78
2022-09-25T00:31:36.587Z,74.45
2022-09-25T00:34:05.435Z,74.01
2022-09-25T00:36:33.504Z,72.51
2022-09-25T00:39:01.345Z,70.18
2022-09-25T00:41:32.102Z,72.00
2022-09-25T00:44:02.713Z,70.33
2022-09-25T00:46:43.995Z,69.50
2022-09-25T00:49:18.086Z,69.83
2022-09-25T00:52:00.055Z,73.71
2022-09-25T00:54:40.764Z,70.59
2022-09-25T00:57:11.318Z,72.63
2022-09-25T00:59:43.025Z,71.05
2022-09-25T01:02:14.643Z,71.40
2022-09-25T01:04:46.179Z,72.45
2022-09-25T01:07:14.932Z,73.57
2022-09-25T01:09:43.888Z,74.45
2022-09-25T01:12:11.260Z,73.30
2022-09-25T01:14:39.611Z,73.17
2022-09-25T01:17:12.445Z,71.53
2022-09-25T01:19:55.919Z,71.29
2022-09-25T01:22:35.623Z,73.35
2022-09-25T01:25:05.977Z,71.16
2022-09-25T01:28:13.653Z,71.06
2022-09-25T01:30:45.040Z,69.85
2022-09-25T01:33:21.766Z,71.29
2022-09-25T01:35:53.217Z,69.91
2022-09-25T01:38:34.803Z,70.76
2022-09-25T01:41:02.198Z,71.84
2022-09-25T01:43:39.879Z,73.66
2022-09-25T01:46:14.104Z,74.38
2022-09-25T01:48:43.253Z,73.31
2022-09-25T01:51:32.402Z,74.67
2022-09-25T01:54:05.541Z,75.07
2022-09-25T01:57:02.307Z,72.11
2022-09-25T01:59:51.634Z,70.88
2022-09-25T02:02:22.947Z,72.33
2022-09-25T02:04:57.897Z,75.44
2022-09-25T02:07:30.839Z,72.48
2022-09-25T02:10:04.985Z,71.56
2022-09-25T02:12:37.406Z,76.09
2022-09-25T02:15:09.745Z,74.04
2022-09-25T02:18:11.973Z,72.78
2022-09-25T02:20:42.293Z,73.48
2022-09-25T02:23:38.915Z,73.02
2022-09-25T02:26:09.170Z,71.90
2022-09-25T02:28:36.676Z,74.73
2022-09-25T02:31:07.171Z,74.31
2022-09-25T02:33:35.332Z,71.73
2022-09-25T02:36:04.655Z,70.84
2022-09-25T02:38:33.733Z,71.27
2022-09-25T02:41:11.111Z,69.04
2022-09-25T02:44:04.653Z,68.48
2022-09-25T02:46:41.631Z,67.89
2022-09-25T02:49:33.428Z,69.88
2022-09-25T02:52:01.255Z,69.17
2022-09-25T02:54:32.825Z,71.57
2022-09-25T02:57:06.464Z,71.10
2022-09-25T02:59:41.997Z,71.03
2022-09-25T03:02:11.840Z,69.78
2022-09-25T03:04:40.344Z,71.39
2022-09-25T03:07:08.067Z,71.49
2022-09-25T03:09:38.738Z,72.58
2022-09-25T03:12:06.765Z,74.06
2022-09-25T03:14:34.269Z,75.52
2022-09-25T03:17:04.737Z,73.77
2022-09-25T03:19:34.863Z,73.27
2022-09-25T03:22:02.982Z,75.63
2022-09-25T03:24:31.415Z,78.43
2022-09-25T03:26:59.493Z,78.97
2022-09-25T03:29:26.988Z,79.69
2022-09-25T03:31:54.400Z,77.34
2022-09-25T03:34:22.831Z,74.69
2022-09-25T03:36:50.286Z,75.63
2022-09-25T03:39:20.823Z,77.57
2022-09-25T03:41:48.443Z,76.61
2022-09-25T03:44:15.853Z,74.83
2022-09-25T03:46:43.318Z,76.99
2022-09-25T03:49:11.231Z,75.88
2022-09-25T03:51:39.056Z,75.49
2022-09-25T03:54:06.637Z,78.46
2022-09-25T03:56:34.549Z,75.68
2022-09-25T03:59:01.919Z,75.02
2022-09-25T04:01:29.672Z,74.83
2022-09-25T04:03:57.835Z,75.55
2022-09-25T04:06:26.415Z,76.58
2022-09-25T04:08:54.387Z,74.73
2022-09-25T04:11:24.115Z,75.02
2022-09-25T04:13:52.770Z,72.71
2022-09-25T04:16:21.205Z,71.30
2022-09-25T04:18:51.294Z,72.55
2022-09-25T04:21:18.897Z,70.97
2022-09-25T04:24:04.768Z,71.90
2022-09-25T04:26:32.567Z,73.29
2022-09-25T04:29:01.693Z,72.66
2022-09-25T04:31:30.081Z,72.18
2022-09-25T04:33:58.104Z,74.62
2022-09-25T04:36:25.635Z,72.18
2022-09-25T04:38:52.977Z,70.51
2022-09-25T04:41:20.699Z,70.59
2022-09-25T04:43:48.378Z,71.77
2022-09-25T04:46:21.518Z,74.78
2022-09-25T04:48:50.318Z,76.63
2022-09-25T04:51:17.992Z,78.15
2022-09-25T04:53:46.107Z,79.11
2022-09-25T04:56:15.792Z,80.24
2022-09-25T04:58:46.228Z,80.19
2022-09-25T05:01:14.078Z,80.39
2022-09-25T05:03:41.605Z,77.56
2022-09-25T05:06:09.255Z,75.42
2022-09-25T05:08:36.897Z,72.88
2022-09-25T05:11:04.263Z,72.31
2022-09-25T05:13:31.623Z,69.86
2022-09-25T05:15:59.353Z,70.26
2022-09-25T05:18:26.889Z,70.27
2022-09-25T05:20:54.479Z,72.21
2022-09-25T05:23:23.408Z,74.09
2022-09-25T05:25:55.431Z,73.34
2022-09-25T05:28:23.657Z,70.75
2022-09-25T05:30:51.580Z,70.83
2022-09-25T05:33:19.272Z,73.54
2022-09-25T05:35:48.490Z,74.49
2022-09-25T05:38:15.945Z,76.07
2022-09-25T05:40:43.438Z,75.39
2022-09-25T05:43:12.559Z,74.09
2022-09-25T05:45:39.950Z,73.65
2022-09-25T05:48:08.358Z,74.57
2022-09-25T05:50:36.491Z,76.67
2022-09-25T05:53:05.175Z,76.36
2022-09-25T05:55:32.722Z,74.21
2022-09-25T05:58:02.734Z,73.81
2022-09-25T06:00:33.006Z,74.27
2022-09-25T06:03:01.967Z,74.10
2022-09-25T06:05:30.267Z,72.30
2022-09-25T06:07:57.666Z,70.83
2022-09-25T06:10:28.421Z,69.80
2022-09-25T06:13:00.142Z,69.82
2022-09-25T06:15:29.037Z,71.66
2022-09-25T06:17:56.597Z,72.98
2022-09-25T06:20:25.018Z,75.78
2022-09-25T06:22:54.341Z,73.68
2022-09-25T06:25:23.915Z,71.87
2022-09-25T06:28:00.391Z,68.95
2022-09-25T06:30:36.640Z,68.44
2022-09-25T06:33:10.896Z,67.70
2022-09-25T06:35:47.225Z,68.72
2022-09-25T06:38:15.607Z,69.99
2022-09-25T06:40:43.788Z,69.52
2022-09-25T06:43:12.977Z,69.77
2022-09-25T06:45:40.560Z,69.78
2022-09-25T06:48:16.358Z,69.92
2022-09-25T06:50:49.070Z,70.45
2022-09-25T06:53:18.298Z,71.13
2022-09-25T06:55:45.975Z,69.95
2022-09-25T06:58:19.588Z,69.48
2022-09-25T07:00:48.393Z,67.79
2022-09-25T07:03:34.648Z,66.57
2022-09-25T07:06:03.843Z,67.13
2022-09-25T07:08:31.454Z,67.66
2022-09-25T07:10:59.391Z,67.32
2022-09-25T07:13:29.999Z,66.61
2022-09-25T07:16:07.315Z,66.45
2022-09-25T07:18:34.998Z,66.09
2022-09-25T07:21:07.847Z,66.01
2022-09-25T07:23:36.247Z,65.73
2022-09-25T07:26:09.122Z,66.25
2022-09-25T07:28:37.789Z,65.88
2022-09-25T07:31:15.530Z,65.13
2022-09-25T07:33:43.309Z,64.59
2022-09-25T07:36:12.045Z,64.85
2022-09-25T07:38:40.055Z,64.28
2022-09-25T07:41:11.220Z,63.08
2022-09-25T07:43:38.829Z,62.98
2022-09-25T07:46:06.975Z,62.42
2022-09-25T07:48:35.016Z,62.78
2022-09-25T07:51:07.693Z,62.85
2022-09-25T07:53:35.323Z,62.66
2022-09-25T07:56:06.600Z,62.08
2022-09-25T07:58:35.721Z,61.78
2022-09-25T08:01:05.865Z,61.54
2022-09-25T08:03:34.150Z,62.26
2022-09-25T08:06:11.783Z,64.18
2022-09-25T08:08:40.789Z,61.95
2022-09-25T08:11:14.041Z,62.47
2022-09-25T08:13:41.933Z,64.59
2022-09-25T08:16:13.596Z,64.03
2022-09-25T08:18:42.615Z,65.44
2022-09-25T08:21:14.308Z,66.22
2022-09-25T08:23:47.740Z,65.87
2022-09-25T08:26:16.679Z,65.67
2022-09-25T08:28:44.503Z,65.81
2022-09-25T08:31:14.646Z,66.49
2022-09-25T08:33:46.883Z,66.18
2022-09-25T08:36:14.593Z,66.11
2022-09-25T08:38:42.371Z,66.05
2022-09-25T08:41:18.888Z,66.07
2022-09-25T08:44:09.505Z,65.18
2022-09-25T08:46:58.630Z,65.80
2022-09-25T08:49:29.898Z,64.25
2022-09-25T08:52:02.585Z,63.79
2022-09-25T08:54:32.098Z,63.13
2022-09-25T08:57:06.992Z,63.46
2022-09-25T08:59:35.812Z,63.80
2022-09-25T09:02:11.651Z,63.90
2022-09-25T09:04:47.111Z,62.85
2022-09-25T09:07:34.554Z,62.10
2022-09-25T09:10:34.580Z,62.90
2022-09-25T09:13:11.350Z,63.50
2022-09-25T09:16:00.933Z,63.57
2022-09-25T09:18:30.507Z,62.86
2022-09-25T09:21:22.647Z,63.67
2022-09-25T09:24:06.287Z,63.87
2022-09-25T09:26:52.172Z,63.33
2022-09-25T09:29:28.285Z,62.94
2022-09-25T09:32:11.267Z,63.74
2022-09-25T09:35:07.301Z,64.12
2022-09-25T09:37:46.396Z,62.93
2022-09-25T09:40:43.307Z,62.60
2022-09-25T09:43:44.398Z,63.59
2022-09-25T09:46:22.684Z,65.45
2022-09-25T09:49:11.018Z,65.22
2022-09-25T09:51:38.486Z,66.25
2022-09-25T09:54:16.340Z,66.45
2022-09-25T09:56:46.426Z,67.17
2022-09-25T09:59:22.648Z,69.98
2022-09-25T10:02:00.334Z,69.58
2022-09-25T10:04:34.113Z,70.21
2022-09-25T10:07:05.411Z,70.35
2022-09-25T10:09:33.250Z,69.59
2022-09-25T10:12:08.296Z,70.11
2022-09-25T10:14:42.520Z,70.95
2022-09-25T10:17:13.562Z,71.14
2022-09-25T10:20:02.127Z,72.63
2022-09-25T10:22:36.901Z,71.83
2022-09-25T10:25:06.744Z,72.03
2022-09-25T10:27:36.900Z,73.33
2022-09-25T10:30:22.892Z,72.72
2022-09-25T10:33:14.399Z,74.74
2022-09-25T10:35:45.981Z,75.66
2022-09-25T10:38:48.430Z,75.43
2022-09-25T10:41:22.472Z,75.46
2022-09-25T10:43:52.911Z,75.41
2022-09-25T10:46:48.508Z,75.20
2022-09-25T10:49:45.462Z,75.70
2022-09-25T10:52:15.391Z,74.71
2022-09-25T10:54:45.678Z,74.25
2022-09-25T10:57:34.240Z,74.08
2022-09-25T11:00:19.459Z,74.77
2022-09-25T11:02:48.438Z,74.63
2022-09-25T11:05:21.352Z,75.12
2022-09-25T11:07:58.950Z,73.10
2022-09-25T11:10:42.754Z,73.40
2022-09-25T11:13:21.184Z,74.19
2022-09-25T11:15:53.952Z,75.12
2022-09-25T11:18:38.717Z,72.89
2022-09-25T11:21:26.095Z,72.49
2022-09-25T11:24:04.725Z,75.26
2022-09-25T11:26:42.489Z,75.99
2022-09-25T11:29:39.379Z,74.90
2022-09-25T11:32:32.654Z,73.49
2022-09-25T11:35:30.079Z,71.47
2022-09-25T11:38:09.730Z,77.13
2022-09-25T11:41:14.780Z,77.77
2022-09-25T11:43:58.349Z,79.22
2022-09-25T11:47:06.626Z,76.60
2022-09-25T11:49:36.782Z,76.83
2022-09-25T11:52:29.543Z,77.83
2022-09-25T11:54:59.916Z,72.29
2022-09-25T11:57:36.621Z,69.50
2022-09-25T12:00:28.613Z,69.00
2022-09-25T12:03:09.510Z,66.76
2022-09-25T12:06:05.569Z,67.58
2022-09-25T12:08:54.634Z,69.44
2022-09-25T12:11:32.053Z,69.94
2022-09-25T12:14:26.926Z,69.11
2022-09-25T12:17:23.855Z,70.53
2022-09-25T12:20:02.911Z,69.93
2022-09-25T12:23:03.906Z,75.22
2022-09-25T12:25:48.151Z,79.52
2022-09-25T12:28:23.289Z,79.99
2022-09-25T12:31:06.650Z,77.70
2022-09-25T12:33:59.571Z,78.93
2022-09-25T12:36:41.956Z,81.14
2022-09-25T12:39:30.007Z,83.16
2022-09-25T12:42:07.526Z,85.42
2022-09-25T12:44:50.243Z,86.48
2022-09-25T12:47:46.512Z,85.85
2022-09-25T12:50:16.983Z,80.49
2022-09-25T12:52:52.544Z,81.61
2022-09-25T12:55:26.253Z,79.92
2022-09-25T12:58:10.971Z,78.09
2022-09-25T13:00:42.223Z,77.26
2022-09-25T13:03:17.705Z,77.73
2022-09-25T13:05:55.008Z,77.00
2022-09-25T13:08:39.718Z,73.18
2022-09-25T13:11:10.979Z,73.40
2022-09-25T13:13:53.741Z,72.85
2022-09-25T13:16:22.298Z,72.00
2022-09-25T13:19:11.384Z,73.04
2022-09-25T13:21:42.326Z,77.43
2022-09-25T13:24:14.499Z,76.28
2022-09-25T13:26:52.766Z,73.99
2022-09-25T13:29:35.053Z,73.71
2022-09-25T13:32:18.989Z,73.94
2022-09-25T13:34:47.244Z,73.90
2022-09-25T13:37:15.677Z,73.85
2022-09-25T13:40:08.792Z,75.38
2022-09-25T13:42:40.117Z,75.52
2022-09-25T13:45:33.290Z,74.76
2022-09-25T13:48:12.529Z,74.55
2022-09-25T13:50:45.379Z,74.84
2022-09-25T13:53:21.660Z,74.13
2022-09-25T13:55:55.167Z,73.52
2022-09-25T13:58:25.780Z,74.70
2022-09-25T14:00:58.773Z,74.15
2022-09-25T14:03:44.089Z,75.14
2022-09-25T14:06:17.570Z,76.10
2022-09-25T14:08:45.861Z,76.67
2022-09-25T14:11:17.162Z,78.65
2022-09-25T14:13:46.728Z,79.30
2022-09-25T14:16:26.118Z,83.63
2022-09-25T14:18:55.357Z,84.93
2022-09-25T14:21:23.230Z,82.04
2022-09-25T14:23:53.488Z,79.82
2022-09-25T14:26:24.863Z,79.16
2022-09-25T14:28:54.359Z,80.27
2022-09-25T14:31:31.204Z,79.73
2022-09-25T14:34:20.535Z,78.70
2022-09-25T14:37:17.115Z,77.30
2022-09-25T14:39:50.858Z,77.88
2022-09-25T14:42:52.231Z,77.70
2022-09-25T14:45:31.988Z,77.16
2022-09-25T14:48:00.761Z,76.18
2022-09-25T14:50:38.576Z,75.43
2022-09-25T14:53:12.961Z,76.68
2022-09-25T14:55:46.358Z,75.21
2022-09-25T14:58:21.904Z,75.50
2022-09-25T15:00:55.622Z,75.82
2022-09-25T15:03:31.185Z,74.73
2022-09-25T15:06:02.054Z,74.52
2022-09-25T15:08:38.981Z,74.57
2022-09-25T15:11:12.693Z,74.62
2022-09-25T15:13:40.688Z,74.20
2022-09-25T15:16:33.478Z,74.89
2022-09-25T15:19:02.454Z,76.62
2022-09-25T15:21:31.902Z,74.03
2022-09-25T15:24:07.332Z,75.53
2022-09-25T15:26:39.370Z,76.17
2022-09-25T15:29:18.240Z,76.14
2022-09-25T15:31:50.788Z,76.88
2022-09-25T15:34:24.348Z,76.22
2022-09-25T15:36:52.553Z,76.32
2022-09-25T15:39:25.517Z,74.42
2022-09-25T15:41:53.374Z,74.20
2022-09-25T15:44:25.428Z,74.61
2022-09-25T15:46:58.972Z,75.31
2022-09-25T15:49:33.586Z,75.72
2022-09-25T15:52:02.405Z,75.39
2022-09-25T15:54:36.264Z,75.08
2022-09-25T15:57:07.051Z,76.11
2022-09-25T15:59:58.796Z,77.13
2022-09-25T16:02:51.227Z,78.44
2022-09-25T16:05:27.466Z,76.43
2022-09-25T16:08:15.528Z,75.65
2022-09-25T16:10:49.695Z,74.33
2022-09-25T16:13:23.336Z,74.70
2022-09-25T16:15:52.492Z,74.92
2022-09-25T16:18:46.498Z,76.01
2022-09-25T16:21:15.868Z,76.14
2022-09-25T16:23:44.238Z,79.83
2022-09-25T16:26:22.271Z,82.38
2022-09-25T16:29:11.525Z,83.37
2022-09-25T16:31:40.345Z,83.93
2022-09-25T16:34:17.945Z,85.10
2022-09-25T16:36:46.083Z,86.96
2022-09-25T16:39:23.128Z,90.54
2022-09-25T16:41:51.211Z,90.49
2022-09-25T16:44:21.930Z,90.97
2022-09-25T16:46:52.594Z,92.19
2022-09-25T16:49:20.570Z,94.16
2022-09-25T16:51:49.245Z,90.69
2022-09-25T16:54:18.473Z,88.73
2022-09-25T16:56:48.156Z,88.31
2022-09-25T16:59:24.481Z,85.52
2022-09-25T17:02:00.946Z,83.43
2022-09-25T17:04:31.175Z,81.69
2022-09-25T17:06:59.040Z,82.15
2022-09-25T17:09:28.664Z,81.37
2022-09-25T17:12:01.079Z,81.49
2022-09-25T17:14:28.990Z,81.40
2022-09-25T17:16:57.009Z,81.62
2022-09-25T17:19:24.706Z,81.62
2022-09-25T17:21:53.846Z,81.70
2022-09-25T17:24:23.905Z,81.27
2022-09-25T17:26:52.146Z,82.18
2022-09-25T17:29:20.602Z,81.38
2022-09-25T17:31:48.224Z,81.20
2022-09-25T17:34:25.127Z,81.35
2022-09-25T17:36:52.729Z,81.50
2022-09-25T17:39:21.191Z,81.97
2022-09-25T17:41:48.595Z,81.92
2022-09-25T17:44:22.885Z,82.90
2022-09-25T17:46:55.764Z,81.22
2022-09-25T17:49:24.060Z,81.23
2022-09-25T17:51:52.091Z,81.04
2022-09-25T17:54:20.426Z,81.64
2022-09-25T17:56:48.346Z,81.87
2022-09-25T17:59:16.568Z,81.09
2022-09-25T18:01:44.357Z,80.74
2022-09-25T18:04:23.896Z,81.14
2022-09-25T18:06:52.078Z,81.08
2022-09-25T18:09:20.149Z,81.21
2022-09-25T18:11:48.088Z,82.21
2022-09-25T18:14:16.130Z,83.96
2022-09-25T18:16:45.063Z,84.31
2022-09-25T18:19:36.234Z,82.01
2022-09-25T18:22:21.920Z,81.85
2022-09-25T18:24:57.053Z,83.67
2022-09-25T18:27:30.715Z,82.82
2022-09-25T18:29:58.532Z,82.34
2022-09-25T18:32:27.026Z,82.38
2022-09-25T18:34:54.732Z,82.70
2022-09-25T18:37:22.666Z,83.69
2022-09-25T18:39:50.875Z,83.21
2022-09-25T18:42:18.655Z,82.96
2022-09-25T18:44:46.374Z,82.55
2022-09-25T18:47:14.310Z,82.54
2022-09-25T18:49:42.724Z,82.37
2022-09-25T18:52:11.620Z,81.89
2022-09-25T18:54:42.168Z,82.77
2022-09-25T18:57:11.590Z,82.25
2022-09-25T18:59:40.558Z,83.13
2022-09-25T19:02:21.735Z,81.87
2022-09-25T19:04:51.776Z,81.45
2022-09-25T19:07:19.745Z,81.48
2022-09-25T19:09:47.295Z,81.75
2022-09-25T19:12:17.166Z,80.74
2022-09-25T19:14:45.416Z,80.92
2022-09-25T19:17:14.951Z,81.85
2022-09-25T19:19:43.936Z,80.85
2022-09-25T19:22:17.908Z,80.92
2022-09-25T19:24:46.786Z,80.28
2022-09-25T19:27:18.005Z,81.62
2022-09-25T19:29:46.144Z,81.34
2022-09-25T19:32:15.548Z,81.41
2022-09-25T19:34:42.965Z,79.97
2022-09-25T19:37:11.267Z,81.06
2022-09-25T19:39:57.511Z,82.59
2022-09-25T19:42:28.782Z,81.18
2022-09-25T19:44:56.494Z,83.25
2022-09-25T19:47:24.303Z,83.71
2022-09-25T19:49:52.308Z,82.61
2022-09-25T19:52:22.267Z,81.50
2022-09-25T19:54:49.849Z,81.43
2022-09-25T19:57:18.268Z,80.91
2022-09-25T19:59:45.945Z,80.12
2022-09-25T20:02:13.877Z,80.91
2022-09-25T20:04:44.042Z,81.72
2022-09-25T20:07:16.105Z,82.04
2022-09-25T20:09:44.691Z,81.92
2022-09-25T20:12:12.341Z,81.66
2022-09-25T20:14:40.030Z,80.92
2022-09-25T20:17:10.189Z,83.50
2022-09-25T20:19:37.836Z,80.70
2022-09-25T20:22:05.879Z,79.94
2022-09-25T20:24:33.816Z,80.09
2022-09-25T20:27:01.418Z,81.23
2022-09-25T20:29:29.192Z,80.26
2022-09-25T20:31:57.048Z,81.48
2022-09-25T20:34:24.471Z,80.56
2022-09-25T20:36:53.077Z,80.58
2022-09-25T20:39:22.397Z,80.61
2022-09-25T20:41:50.614Z,83.45
2022-09-25T20:44:18.585Z,81.97
2022-09-25T20:46:46.615Z,82.62
2022-09-25T20:49:14.822Z,81.90
2022-09-25T20:51:46.441Z,82.01
2022-09-25T20:54:14.956Z,83.26
2022-09-25T20:56:44.050Z,84.60
2022-09-25T20:59:12.327Z,84.91
2022-09-25T21:01:41.501Z,82.73
2022-09-25T21:04:10.379Z,83.87
2022-09-25T21:06:41.241Z,82.32
2022-09-25T21:09:15.949Z,82.46
2022-09-25T21:11:43.643Z,83.98
2022-09-25T21:14:16.298Z,82.26
2022-09-25T21:16:43.684Z,80.86
2022-09-25T21:19:13.181Z,82.09
2022-09-25T21:21:41.052Z,79.42
2022-09-25T21:24:10.242Z,81.39
2022-09-25T21:26:37.990Z,82.01
2022-09-25T21:29:06.037Z,80.74
2022-09-25T21:31:45.195Z,81.22
2022-09-25T21:34:16.394Z,83.65
2022-09-25T21:36:45.622Z,84.14
2022-09-25T21:39:13.861Z,85.43
2022-09-25T21:41:41.791Z,84.81
2022-09-25T21:44:14.199Z,82.67
2022-09-25T21:46:42.356Z,82.53
2022-09-25T21:49:16.155Z,82.26
2022-09-25T21:51:45.590Z,82.11
2022-09-25T21:54:14.455Z,82.62
2022-09-25T21:56:41.934Z,84.30
2022-09-25T21:59:09.875Z,82.04
2022-09-25T22:01:38.725Z,82.33
2022-09-25T22:04:08.249Z,82.36
2022-09-25T22:06:38.792Z,82.24
2022-09-25T22:09:09.668Z,83.69
2022-09-25T22:11:38.090Z,83.63
2022-09-25T22:14:06.308Z,83.16
2022-09-25T22:16:36.290Z,81.34
2022-09-25T22:19:17.511Z,82.26
2022-09-25T22:21:46.324Z,82.73
2022-09-25T22:24:14.829Z,83.13
2022-09-25T22:26:45.513Z,86.53
2022-09-25T22:29:13.606Z,83.00
2022-09-25T22:31:44.602Z,84.22
2022-09-25T22:34:16.659Z,85.66
2022-09-25T22:36:44.940Z,84.70
2022-09-25T22:39:14.583Z,85.61
2022-09-25T22:41:42.325Z,84.25
2022-09-25T22:44:10.034Z,85.24
2022-09-25T22:46:37.461Z,86.28
2022-09-25T22:49:04.849Z,83.70
2022-09-25T22:51:32.459Z,81.90
2022-09-25T22:53:59.827Z,83.02
2022-09-25T22:56:29.398Z,82.37
2022-09-25T22:58:59.716Z,82.91
2022-09-25T23:01:33.611Z,80.96
2022-09-25T23:04:04.304Z,82.61
2022-09-25T23:06:33.117Z,82.45
2022-09-25T23:09:03.928Z,83.71
2022-09-25T23:11:31.589Z,83.43
2022-09-25T23:14:01.911Z,85.06
2022-09-25T23:16:31.317Z,85.28
2022-09-25T23:19:00.036Z,82.21
2022-09-25T23:21:29.184Z,82.69
2022-09-25T23:24:01.744Z,82.01
2022-09-25T23:26:29.770Z,82.94
2022-09-25T23:28:58.486Z,82.61
2022-09-25T23:31:26.157Z,86.20
2022-09-25T23:33:53.571Z,84.38
2022-09-25T23:36:22.867Z,82.52
2022-09-25T23:38:51.937Z,83.38
2022-09-25T23:41:26.731Z,82.78
2022-09-25T23:43:55.529Z,82.11
2022-09-25T23:46:25.472Z,83.83
2022-09-25T23:48:53.874Z,84.41
2022-09-25T23:51:26.165Z,84.19
2022-09-25T23:53:55.178Z,82.36
2022-09-25T23:56:25.409Z,83.89
2022-09-25T23:58:53.629Z,82.32
